sensor_id;sensor_type;location;lat;lon;timestamp;P1;durP1;ratioP1;P2;durP2;ratioP2
13584;SDS011;6863;48.402;9.994;2023-09-19T00:00:00;2.00;;;1.90;;
13584;SDS011;6863;48.402;9.994;2023-09-19T00:02:26;1.80;;;1.70;;
13584;SDS011;6863;48.402;9.994;2023-09-19T00:04:52;3.08;;;2.20;;
13584;SDS011;6863;48.402;9.994;2023-09-19T00:07:18;1.80;;;1.70;;
13584;SDS011;6863;48.402;9.994;2023-09-19T00:09:44;1.80;;;1.70;;
13584;SDS011;6863;48.402;9.994;2023-09-19T00:12:09;1.70;;;1.60;;
13584;SDS011;6863;48.402;9.994;2023-09-19T00:14:35;2.60;;;2.22;;
13584;SDS011;6863;48.402;9.994;2023-09-19T00:17:02;2.67;;;2.25;;
13584;SDS011;6863;48.402;9.994;2023-09-19T00:19:35;3.33;;;2.23;;
13584;SDS011;6863;48.402;9.994;2023-09-19T00:22:02;3.20;;;2.10;;
13584;SDS011;6863;48.402;9.994;2023-09-19T00:24:28;2.97;;;2.50;;
13584;SDS011;6863;48.402;9.994;2023-09-19T00:26:54;2.77;;;2.30;;
13584;SDS011;6863;48.402;9.994;2023-09-19T00:29:24;2.47;;;2.27;;
13584;SDS011;6863;48.402;9.994;2023-09-19T00:31:54;2.47;;;2.10;;
13584;SDS011;6863;48.402;9.994;2023-09-19T00:34:21;2.17;;;1.80;;
13584;SDS011;6863;48.402;9.994;2023-09-19T00:36:46;2.07;;;1.87;;
13584;SDS011;6863;48.402;9.994;2023-09-19T00:39:12;3.27;;;2.00;;
13584;SDS011;6863;48.402;9.994;2023-09-19T00:41:38;2.00;;;1.90;;
13584;SDS011;6863;48.402;9.994;2023-09-19T00:44:04;2.00;;;1.80;;
13584;SDS011;6863;48.402;9.994;2023-09-19T00:46:30;2.50;;;2.23;;
13584;SDS011;6863;48.402;9.994;2023-09-19T00:48:57;2.43;;;2.30;;
13584;SDS011;6863;48.402;9.994;2023-09-19T00:51:24;4.33;;;2.90;;
13584;SDS011;6863;48.402;9.994;2023-09-19T00:53:52;3.03;;;2.37;;
13584;SDS011;6863;48.402;9.994;2023-09-19T00:56:18;3.73;;;2.83;;
13584;SDS011;6863;48.402;9.994;2023-09-19T00:58:45;2.87;;;2.53;;
13584;SDS011;6863;48.402;9.994;2023-09-19T01:01:12;3.30;;;3.00;;
13584;SDS011;6863;48.402;9.994;2023-09-19T01:03:40;5.23;;;3.60;;
13584;SDS011;6863;48.402;9.994;2023-09-19T01:06:07;4.90;;;2.97;;
13584;SDS011;6863;48.402;9.994;2023-09-19T01:08:33;3.50;;;3.20;;
13584;SDS011;6863;48.402;9.994;2023-09-19T01:11:15;4.93;;;3.00;;
13584;SDS011;6863;48.402;9.994;2023-09-19T01:14:03;3.60;;;2.70;;
13584;SDS011;6863;48.402;9.994;2023-09-19T01:16:42;3.07;;;2.77;;
13584;SDS011;6863;48.402;9.994;2023-09-19T01:22:32;4.80;;;3.63;;
13584;SDS011;6863;48.402;9.994;2023-09-19T01:28:13;3.37;;;3.07;;
13584;SDS011;6863;48.402;9.994;2023-09-19T01:30:51;4.50;;;3.03;;
13584;SDS011;6863;48.402;9.994;2023-09-19T01:33:23;5.93;;;3.60;;
13584;SDS011;6863;48.402;9.994;2023-09-19T01:35:48;3.30;;;3.00;;
13584;SDS011;6863;48.402;9.994;2023-09-19T01:38:15;4.10;;;3.70;;
13584;SDS011;6863;48.402;9.994;2023-09-19T01:40:42;3.97;;;3.67;;
13584;SDS011;6863;48.402;9.994;2023-09-19T01:46:02;3.73;;;3.43;;
13584;SDS011;6863;48.402;9.994;2023-09-19T01:48:40;4.13;;;3.60;;
13584;SDS011;6863;48.402;9.994;2023-09-19T01:51:11;5.40;;;4.00;;
13584;SDS011;6863;48.402;9.994;2023-09-19T01:56:31;6.17;;;3.60;;
13584;SDS011;6863;48.402;9.994;2023-09-19T01:59:04;3.20;;;2.90;;
13584;SDS011;6863;48.402;9.994;2023-09-19T02:01:38;5.87;;;3.57;;
13584;SDS011;6863;48.402;9.994;2023-09-19T02:04:05;4.27;;;3.50;;
13584;SDS011;6863;48.402;9.994;2023-09-19T02:09:04;3.80;;;3.50;;
13584;SDS011;6863;48.402;9.994;2023-09-19T02:11:29;3.30;;;3.00;;
13584;SDS011;6863;48.402;9.994;2023-09-19T02:13:55;3.70;;;3.07;;
13584;SDS011;6863;48.402;9.994;2023-09-19T02:16:21;3.40;;;3.10;;
13584;SDS011;6863;48.402;9.994;2023-09-19T02:18:49;4.40;;;3.63;;
13584;SDS011;6863;48.402;9.994;2023-09-19T02:21:16;4.03;;;3.70;;
13584;SDS011;6863;48.402;9.994;2023-09-19T02:23:42;6.13;;;5.43;;
13584;SDS011;6863;48.402;9.994;2023-09-19T02:26:12;5.47;;;4.97;;
13584;SDS011;6863;48.402;9.994;2023-09-19T02:28:38;9.50;;;7.17;;
13584;SDS011;6863;48.402;9.994;2023-09-19T02:31:05;8.13;;;7.33;;
13584;SDS011;6863;48.402;9.994;2023-09-19T02:33:30;7.80;;;5.83;;
13584;SDS011;6863;48.402;9.994;2023-09-19T02:35:57;6.67;;;6.00;;
13584;SDS011;6863;48.402;9.994;2023-09-19T02:38:24;5.73;;;5.20;;
13584;SDS011;6863;48.402;9.994;2023-09-19T02:40:51;6.07;;;4.07;;
13584;SDS011;6863;48.402;9.994;2023-09-19T02:43:20;4.60;;;3.70;;
13584;SDS011;6863;48.402;9.994;2023-09-19T02:45:46;6.00;;;4.57;;
13584;SDS011;6863;48.402;9.994;2023-09-19T02:48:11;4.17;;;3.77;;
13584;SDS011;6863;48.402;9.994;2023-09-19T02:50:37;5.67;;;3.37;;
13584;SDS011;6863;48.402;9.994;2023-09-19T02:53:05;5.27;;;3.70;;
13584;SDS011;6863;48.402;9.994;2023-09-19T02:55:31;5.63;;;3.53;;
13584;SDS011;6863;48.402;9.994;2023-09-19T02:57:57;4.17;;;3.50;;
13584;SDS011;6863;48.402;9.994;2023-09-19T03:00:23;3.70;;;3.40;;
13584;SDS011;6863;48.402;9.994;2023-09-19T03:02:55;4.40;;;4.00;;
13584;SDS011;6863;48.402;9.994;2023-09-19T03:05:21;5.10;;;4.00;;
13584;SDS011;6863;48.402;9.994;2023-09-19T03:07:51;4.47;;;3.40;;
13584;SDS011;6863;48.402;9.994;2023-09-19T03:10:17;4.70;;;3.50;;
13584;SDS011;6863;48.402;9.994;2023-09-19T03:12:43;5.27;;;4.00;;
13584;SDS011;6863;48.402;9.994;2023-09-19T03:15:09;5.13;;;3.70;;
13584;SDS011;6863;48.402;9.994;2023-09-19T03:17:35;5.73;;;3.87;;
13584;SDS011;6863;48.402;9.994;2023-09-19T03:20:01;5.13;;;3.77;;
13584;SDS011;6863;48.402;9.994;2023-09-19T03:22:27;4.40;;;3.70;;
13584;SDS011;6863;48.402;9.994;2023-09-19T03:24:53;5.07;;;3.80;;
13584;SDS011;6863;48.402;9.994;2023-09-19T03:27:19;4.00;;;3.60;;
13584;SDS011;6863;48.402;9.994;2023-09-19T03:29:46;5.70;;;3.90;;
13584;SDS011;6863;48.402;9.994;2023-09-19T03:32:14;5.80;;;4.00;;
13584;SDS011;6863;48.402;9.994;2023-09-19T03:34:40;4.87;;;3.90;;
13584;SDS011;6863;48.402;9.994;2023-09-19T03:37:07;6.20;;;4.60;;
13584;SDS011;6863;48.402;9.994;2023-09-19T03:39:33;4.90;;;4.00;;
13584;SDS011;6863;48.402;9.994;2023-09-19T03:41:59;4.93;;;4.10;;
13584;SDS011;6863;48.402;9.994;2023-09-19T03:44:25;5.53;;;4.07;;
13584;SDS011;6863;48.402;9.994;2023-09-19T03:46:51;4.73;;;4.17;;
13584;SDS011;6863;48.402;9.994;2023-09-19T03:49:17;6.30;;;4.67;;
13584;SDS011;6863;48.402;9.994;2023-09-19T03:51:42;4.00;;;3.70;;
13584;SDS011;6863;48.402;9.994;2023-09-19T03:54:08;4.10;;;3.70;;
13584;SDS011;6863;48.402;9.994;2023-09-19T03:56:34;5.17;;;4.40;;
13584;SDS011;6863;48.402;9.994;2023-09-19T03:58:59;4.57;;;4.03;;
13584;SDS011;6863;48.402;9.994;2023-09-19T04:01:25;6.47;;;4.60;;
13584;SDS011;6863;48.402;9.994;2023-09-19T04:03:52;4.43;;;3.97;;
13584;SDS011;6863;48.402;9.994;2023-09-19T04:06:18;4.87;;;4.37;;
13584;SDS011;6863;48.402;9.994;2023-09-19T04:08:44;9.03;;;4.33;;
13584;SDS011;6863;48.402;9.994;2023-09-19T04:11:11;7.70;;;4.23;;
13584;SDS011;6863;48.402;9.994;2023-09-19T04:13:36;5.93;;;4.27;;
13584;SDS011;6863;48.402;9.994;2023-09-19T04:16:02;7.40;;;4.77;;
13584;SDS011;6863;48.402;9.994;2023-09-19T04:18:35;6.20;;;4.10;;
13584;SDS011;6863;48.402;9.994;2023-09-19T04:21:03;4.37;;;3.97;;
13584;SDS011;6863;48.402;9.994;2023-09-19T04:23:30;5.40;;;4.00;;
13584;SDS011;6863;48.402;9.994;2023-09-19T04:25:57;5.37;;;4.00;;
13584;SDS011;6863;48.402;9.994;2023-09-19T04:28:22;3.90;;;3.50;;
13584;SDS011;6863;48.402;9.994;2023-09-19T04:30:49;5.87;;;4.30;;
13584;SDS011;6863;48.402;9.994;2023-09-19T04:33:14;5.47;;;4.77;;
13584;SDS011;6863;48.402;9.994;2023-09-19T04:35:40;6.50;;;4.67;;
13584;SDS011;6863;48.402;9.994;2023-09-19T04:38:07;4.07;;;3.67;;
13584;SDS011;6863;48.402;9.994;2023-09-19T04:40:33;4.60;;;3.40;;
13584;SDS011;6863;48.402;9.994;2023-09-19T04:42:59;4.77;;;3.33;;
13584;SDS011;6863;48.402;9.994;2023-09-19T04:45:26;4.03;;;3.30;;
13584;SDS011;6863;48.402;9.994;2023-09-19T04:47:52;3.77;;;3.40;;
13584;SDS011;6863;48.402;9.994;2023-09-19T04:50:18;4.77;;;3.63;;
13584;SDS011;6863;48.402;9.994;2023-09-19T04:52:46;3.40;;;3.10;;
13584;SDS011;6863;48.402;9.994;2023-09-19T04:55:16;4.20;;;2.93;;
13584;SDS011;6863;48.402;9.994;2023-09-19T04:57:44;4.00;;;2.93;;
13584;SDS011;6863;48.402;9.994;2023-09-19T05:00:11;4.17;;;3.20;;
13584;SDS011;6863;48.402;9.994;2023-09-19T05:02:42;3.60;;;3.30;;
13584;SDS011;6863;48.402;9.994;2023-09-19T05:05:08;4.33;;;3.27;;
13584;SDS011;6863;48.402;9.994;2023-09-19T05:07:39;3.60;;;3.17;;
13584;SDS011;6863;48.402;9.994;2023-09-19T05:10:06;3.80;;;3.40;;
13584;SDS011;6863;48.402;9.994;2023-09-19T05:12:33;3.70;;;3.17;;
13584;SDS011;6863;48.402;9.994;2023-09-19T05:15:00;4.20;;;3.53;;
13584;SDS011;6863;48.402;9.994;2023-09-19T05:17:30;4.30;;;3.27;;
13584;SDS011;6863;48.402;9.994;2023-09-19T05:19:56;4.20;;;2.63;;
13584;SDS011;6863;48.402;9.994;2023-09-19T05:22:22;4.37;;;3.53;;
13584;SDS011;6863;48.402;9.994;2023-09-19T05:24:49;4.77;;;3.50;;
13584;SDS011;6863;48.402;9.994;2023-09-19T05:27:16;3.13;;;2.90;;
13584;SDS011;6863;48.402;9.994;2023-09-19T05:29:45;3.70;;;3.27;;
13584;SDS011;6863;48.402;9.994;2023-09-19T05:32:10;3.70;;;3.40;;
13584;SDS011;6863;48.402;9.994;2023-09-19T05:34:36;3.50;;;3.20;;
13584;SDS011;6863;48.402;9.994;2023-09-19T05:37:03;3.97;;;3.03;;
13584;SDS011;6863;48.402;9.994;2023-09-19T05:39:32;4.43;;;3.27;;
13584;SDS011;6863;48.402;9.994;2023-09-19T05:41:58;4.07;;;3.20;;
13584;SDS011;6863;48.402;9.994;2023-09-19T05:44:25;3.97;;;3.17;;
13584;SDS011;6863;48.402;9.994;2023-09-19T05:46:50;4.20;;;3.30;;
13584;SDS011;6863;48.402;9.994;2023-09-19T05:49:17;3.30;;;3.00;;
13584;SDS011;6863;48.402;9.994;2023-09-19T05:51:42;6.03;;;3.07;;
13584;SDS011;6863;48.402;9.994;2023-09-19T05:54:08;3.20;;;2.90;;
13584;SDS011;6863;48.402;9.994;2023-09-19T05:56:34;4.33;;;2.90;;
13584;SDS011;6863;48.402;9.994;2023-09-19T05:58:59;3.77;;;2.73;;
13584;SDS011;6863;48.402;9.994;2023-09-19T06:01:25;4.73;;;3.23;;
13584;SDS011;6863;48.402;9.994;2023-09-19T06:03:52;3.57;;;3.27;;
13584;SDS011;6863;48.402;9.994;2023-09-19T06:06:18;4.67;;;3.47;;
13584;SDS011;6863;48.402;9.994;2023-09-19T06:08:44;5.67;;;4.80;;
13584;SDS011;6863;48.402;9.994;2023-09-19T06:11:09;5.73;;;5.00;;
13584;SDS011;6863;48.402;9.994;2023-09-19T06:13:35;19.37;;;5.23;;
13584;SDS011;6863;48.402;9.994;2023-09-19T06:16:04;3.53;;;3.23;;
13584;SDS011;6863;48.402;9.994;2023-09-19T06:18:30;4.00;;;3.20;;
13584;SDS011;6863;48.402;9.994;2023-09-19T06:20:59;4.47;;;3.17;;
13584;SDS011;6863;48.402;9.994;2023-09-19T06:23:25;3.77;;;2.87;;
13584;SDS011;6863;48.402;9.994;2023-09-19T06:25:52;5.33;;;2.70;;
13584;SDS011;6863;48.402;9.994;2023-09-19T06:28:21;3.27;;;2.30;;
13584;SDS011;6863;48.402;9.994;2023-09-19T06:30:50;4.70;;;2.63;;
13584;SDS011;6863;48.402;9.994;2023-09-19T06:33:16;2.80;;;2.40;;
13584;SDS011;6863;48.402;9.994;2023-09-19T06:35:43;2.47;;;1.70;;
13584;SDS011;6863;48.402;9.994;2023-09-19T06:38:12;2.38;;;1.80;;
13584;SDS011;6863;48.402;9.994;2023-09-19T06:40:38;2.00;;;1.90;;
13584;SDS011;6863;48.402;9.994;2023-09-19T06:43:04;4.63;;;2.20;;
13584;SDS011;6863;48.402;9.994;2023-09-19T06:45:30;2.15;;;1.85;;
13584;SDS011;6863;48.402;9.994;2023-09-19T06:47:57;2.90;;;1.90;;
13584;SDS011;6863;48.402;9.994;2023-09-19T06:50:25;2.83;;;2.03;;
13584;SDS011;6863;48.402;9.994;2023-09-19T06:52:51;2.05;;;1.95;;
13584;SDS011;6863;48.402;9.994;2023-09-19T06:55:20;2.10;;;1.90;;
13584;SDS011;6863;48.402;9.994;2023-09-19T06:57:48;2.25;;;1.73;;
13584;SDS011;6863;48.402;9.994;2023-09-19T07:00:14;2.05;;;1.77;;
13584;SDS011;6863;48.402;9.994;2023-09-19T07:02:54;3.00;;;2.53;;
13584;SDS011;6863;48.402;9.994;2023-09-19T07:05:21;3.67;;;2.90;;
13584;SDS011;6863;48.402;9.994;2023-09-19T07:07:47;3.03;;;2.20;;
13584;SDS011;6863;48.402;9.994;2023-09-19T07:10:12;3.13;;;2.30;;
13584;SDS011;6863;48.402;9.994;2023-09-19T07:12:38;1.58;;;1.52;;
13584;SDS011;6863;48.402;9.994;2023-09-19T07:15:04;2.50;;;2.25;;
13584;SDS011;6863;48.402;9.994;2023-09-19T07:17:31;3.53;;;2.10;;
13584;SDS011;6863;48.402;9.994;2023-09-19T07:19:58;3.10;;;2.00;;
13584;SDS011;6863;48.402;9.994;2023-09-19T07:22:23;2.10;;;1.90;;
13584;SDS011;6863;48.402;9.994;2023-09-19T07:24:51;2.05;;;1.95;;
13584;SDS011;6863;48.402;9.994;2023-09-19T07:27:17;1.80;;;1.70;;
13584;SDS011;6863;48.402;9.994;2023-09-19T07:29:42;4.05;;;2.15;;
13584;SDS011;6863;48.402;9.994;2023-09-19T07:32:08;1.83;;;1.70;;
13584;SDS011;6863;48.402;9.994;2023-09-19T07:34:35;2.47;;;2.28;;
13584;SDS011;6863;48.402;9.994;2023-09-19T07:37:00;3.50;;;1.80;;
13584;SDS011;6863;48.402;9.994;2023-09-19T07:39:27;3.45;;;2.00;;
13584;SDS011;6863;48.402;9.994;2023-09-19T07:41:53;2.25;;;1.98;;
13584;SDS011;6863;48.402;9.994;2023-09-19T07:44:19;2.17;;;2.00;;
13584;SDS011;6863;48.402;9.994;2023-09-19T07:46:45;1.75;;;1.65;;
13584;SDS011;6863;48.402;9.994;2023-09-19T07:49:10;1.80;;;1.70;;
13584;SDS011;6863;48.402;9.994;2023-09-19T07:51:36;2.40;;;2.13;;
13584;SDS011;6863;48.402;9.994;2023-09-19T07:54:02;2.38;;;1.92;;
13584;SDS011;6863;48.402;9.994;2023-09-19T07:56:28;3.30;;;2.08;;
13584;SDS011;6863;48.402;9.994;2023-09-19T07:58:55;1.70;;;1.60;;
13584;SDS011;6863;48.402;9.994;2023-09-19T08:01:24;3.50;;;1.98;;
13584;SDS011;6863;48.402;9.994;2023-09-19T08:03:52;1.75;;;1.65;;
13584;SDS011;6863;48.402;9.994;2023-09-19T08:06:17;2.78;;;1.98;;
13584;SDS011;6863;48.402;9.994;2023-09-19T08:08:45;2.00;;;1.77;;
13584;SDS011;6863;48.402;9.994;2023-09-19T08:11:11;2.53;;;1.83;;
13584;SDS011;6863;48.402;9.994;2023-09-19T08:13:40;1.83;;;1.70;;
13584;SDS011;6863;48.402;9.994;2023-09-19T08:16:09;1.70;;;1.48;;
13584;SDS011;6863;48.402;9.994;2023-09-19T08:18:35;1.70;;;1.60;;
13584;SDS011;6863;48.402;9.994;2023-09-19T08:21:04;1.90;;;1.75;;
13584;SDS011;6863;48.402;9.994;2023-09-19T08:23:33;1.40;;;1.25;;
13584;SDS011;6863;48.402;9.994;2023-09-19T08:25:58;1.85;;;1.60;;
13584;SDS011;6863;48.402;9.994;2023-09-19T08:28:28;1.23;;;1.23;;
13584;SDS011;6863;48.402;9.994;2023-09-19T08:30:55;4.22;;;1.50;;
13584;SDS011;6863;48.402;9.994;2023-09-19T08:33:20;1.50;;;1.40;;
13584;SDS011;6863;48.402;9.994;2023-09-19T08:35:46;1.27;;;1.20;;
13584;SDS011;6863;48.402;9.994;2023-09-19T08:38:12;1.90;;;1.80;;
13584;SDS011;6863;48.402;9.994;2023-09-19T08:40:39;1.83;;;1.58;;
13584;SDS011;6863;48.402;9.994;2023-09-19T08:43:07;2.03;;;1.67;;
13584;SDS011;6863;48.402;9.994;2023-09-19T08:45:33;1.30;;;1.30;;
13584;SDS011;6863;48.402;9.994;2023-09-19T08:48:08;8.10;;;2.20;;
13584;SDS011;6863;48.402;9.994;2023-09-19T08:51:03;1.02;;;1.02;;
13584;SDS011;6863;48.402;9.994;2023-09-19T08:56:17;2.42;;;1.77;;
13584;SDS011;6863;48.402;9.994;2023-09-19T08:58:48;1.50;;;1.38;;
13584;SDS011;6863;48.402;9.994;2023-09-19T09:01:18;1.40;;;1.40;;
13584;SDS011;6863;48.402;9.994;2023-09-19T09:03:51;1.50;;;1.40;;
13584;SDS011;6863;48.402;9.994;2023-09-19T09:06:18;1.58;;;1.30;;
13584;SDS011;6863;48.402;9.994;2023-09-19T09:08:46;2.42;;;1.50;;
13584;SDS011;6863;48.402;9.994;2023-09-19T09:11:12;1.20;;;1.20;;
13584;SDS011;6863;48.402;9.994;2023-09-19T09:13:39;1.65;;;1.55;;
13584;SDS011;6863;48.402;9.994;2023-09-19T09:16:06;1.63;;;1.30;;
13584;SDS011;6863;48.402;9.994;2023-09-19T09:18:32;1.40;;;1.30;;
13584;SDS011;6863;48.402;9.994;2023-09-19T09:20:58;1.85;;;1.20;;
13584;SDS011;6863;48.402;9.994;2023-09-19T09:23:24;1.85;;;1.50;;
13584;SDS011;6863;48.402;9.994;2023-09-19T09:25:54;12.43;;;2.10;;
13584;SDS011;6863;48.402;9.994;2023-09-19T09:28:45;3.42;;;1.95;;
13584;SDS011;6863;48.402;9.994;2023-09-19T09:31:23;2.30;;;1.40;;
13584;SDS011;6863;48.402;9.994;2023-09-19T09:33:53;1.38;;;1.10;;
13584;SDS011;6863;48.402;9.994;2023-09-19T09:36:33;1.50;;;1.40;;
13584;SDS011;6863;48.402;9.994;2023-09-19T09:39:00;1.70;;;1.52;;
13584;SDS011;6863;48.402;9.994;2023-09-19T09:41:40;2.15;;;1.50;;
13584;SDS011;6863;48.402;9.994;2023-09-19T09:44:14;1.50;;;1.40;;
13584;SDS011;6863;48.402;9.994;2023-09-19T09:46:46;1.40;;;1.30;;
13584;SDS011;6863;48.402;9.994;2023-09-19T09:49:25;1.52;;;1.42;;
13584;SDS011;6863;48.402;9.994;2023-09-19T09:54:25;1.70;;;1.60;;
13584;SDS011;6863;48.402;9.994;2023-09-19T09:56:59;2.17;;;1.75;;
13584;SDS011;6863;48.402;9.994;2023-09-19T09:59:43;2.55;;;1.92;;
13584;SDS011;6863;48.402;9.994;2023-09-19T10:02:21;2.50;;;1.60;;
13584;SDS011;6863;48.402;9.994;2023-09-19T10:05:18;3.70;;;1.60;;
13584;SDS011;6863;48.402;9.994;2023-09-19T10:07:45;1.17;;;1.00;;
13584;SDS011;6863;48.402;9.994;2023-09-19T10:10:30;1.67;;;1.50;;
13584;SDS011;6863;48.402;9.994;2023-09-19T10:13:06;1.40;;;1.30;;
13584;SDS011;6863;48.402;9.994;2023-09-19T10:15:33;1.67;;;1.58;;
13584;SDS011;6863;48.402;9.994;2023-09-19T10:18:01;3.08;;;1.10;;
13584;SDS011;6863;48.402;9.994;2023-09-19T10:20:30;1.10;;;1.00;;
13584;SDS011;6863;48.402;9.994;2023-09-19T10:23:01;1.58;;;1.30;;
13584;SDS011;6863;48.402;9.994;2023-09-19T10:25:38;1.20;;;1.10;;
13584;SDS011;6863;48.402;9.994;2023-09-19T10:28:11;2.88;;;1.10;;
13584;SDS011;6863;48.402;9.994;2023-09-19T10:30:42;1.95;;;1.52;;
13584;SDS011;6863;48.402;9.994;2023-09-19T10:33:15;4.20;;;1.50;;
13584;SDS011;6863;48.402;9.994;2023-09-19T10:35:46;2.75;;;1.40;;
13584;SDS011;6863;48.402;9.994;2023-09-19T10:38:14;1.70;;;1.48;;
13584;SDS011;6863;48.402;9.994;2023-09-19T10:40:44;1.95;;;1.20;;
13584;SDS011;6863;48.402;9.994;2023-09-19T10:43:15;1.92;;;1.25;;
13584;SDS011;6863;48.402;9.994;2023-09-19T10:45:44;1.52;;;1.40;;
13584;SDS011;6863;48.402;9.994;2023-09-19T10:48:14;2.72;;;1.42;;
13584;SDS011;6863;48.402;9.994;2023-09-19T10:53:50;2.22;;;1.52;;
13584;SDS011;6863;48.402;9.994;2023-09-19T10:56:21;11.55;;;2.72;;
13584;SDS011;6863;48.402;9.994;2023-09-19T10:59:04;1.30;;;1.20;;
13584;SDS011;6863;48.402;9.994;2023-09-19T11:07:05;2.58;;;1.50;;
13584;SDS011;6863;48.402;9.994;2023-09-19T11:09:43;1.50;;;1.40;;
13584;SDS011;6863;48.402;9.994;2023-09-19T11:12:11;1.45;;;1.30;;
13584;SDS011;6863;48.402;9.994;2023-09-19T11:14:37;2.05;;;1.60;;
13584;SDS011;6863;48.402;9.994;2023-09-19T11:31:41;2.03;;;1.50;;
13584;SDS011;6863;48.402;9.994;2023-09-19T11:37:59;3.33;;;1.85;;
13584;SDS011;6863;48.402;9.994;2023-09-19T11:40:05;1.95;;;1.50;;
13584;SDS011;6863;48.402;9.994;2023-09-19T11:48:10;2.45;;;1.40;;
13584;SDS011;6863;48.402;9.994;2023-09-19T11:50:50;1.77;;;1.20;;
13584;SDS011;6863;48.402;9.994;2023-09-19T11:53:17;1.52;;;1.42;;
13584;SDS011;6863;48.402;9.994;2023-09-19T11:55:45;1.30;;;1.20;;
13584;SDS011;6863;48.402;9.994;2023-09-19T11:58:11;2.22;;;1.60;;
13584;SDS011;6863;48.402;9.994;2023-09-19T12:00:41;1.88;;;1.63;;
13584;SDS011;6863;48.402;9.994;2023-09-19T12:03:10;2.10;;;1.60;;
13584;SDS011;6863;48.402;9.994;2023-09-19T12:05:36;1.63;;;1.33;;
13584;SDS011;6863;48.402;9.994;2023-09-19T12:08:03;2.05;;;1.50;;
13584;SDS011;6863;48.402;9.994;2023-09-19T12:10:32;2.05;;;1.65;;
13584;SDS011;6863;48.402;9.994;2023-09-19T12:12:58;1.60;;;1.50;;
13584;SDS011;6863;48.402;9.994;2023-09-19T12:15:27;58.47;;;8.63;;
13584;SDS011;6863;48.402;9.994;2023-09-19T12:17:59;2.50;;;1.40;;
13584;SDS011;6863;48.402;9.994;2023-09-19T12:20:26;1.20;;;1.20;;
13584;SDS011;6863;48.402;9.994;2023-09-19T12:23:14;1.20;;;1.20;;
13584;SDS011;6863;48.402;9.994;2023-09-19T12:25:41;1.48;;;1.30;;
13584;SDS011;6863;48.402;9.994;2023-09-19T12:28:11;1.40;;;1.30;;
13584;SDS011;6863;48.402;9.994;2023-09-19T12:30:37;1.85;;;1.65;;
13584;SDS011;6863;48.402;9.994;2023-09-19T12:33:14;12.68;;;2.33;;
13584;SDS011;6863;48.402;9.994;2023-09-19T12:35:46;2.00;;;1.38;;
13584;SDS011;6863;48.402;9.994;2023-09-19T12:38:22;1.45;;;1.38;;
13584;SDS011;6863;48.402;9.994;2023-09-19T12:40:53;1.20;;;1.20;;
13584;SDS011;6863;48.402;9.994;2023-09-19T12:43:20;1.95;;;1.63;;
13584;SDS011;6863;48.402;9.994;2023-09-19T12:45:47;1.33;;;1.30;;
13584;SDS011;6863;48.402;9.994;2023-09-19T12:51:07;4.63;;;1.65;;
13584;SDS011;6863;48.402;9.994;2023-09-19T12:53:35;1.40;;;1.30;;
13584;SDS011;6863;48.402;9.994;2023-09-19T12:56:09;1.30;;;1.30;;
13584;SDS011;6863;48.402;9.994;2023-09-19T12:58:54;2.38;;;1.50;;
13584;SDS011;6863;48.402;9.994;2023-09-19T13:01:21;1.40;;;1.30;;
13584;SDS011;6863;48.402;9.994;2023-09-19T13:06:44;2.08;;;1.60;;
13584;SDS011;6863;48.402;9.994;2023-09-19T13:09:14;1.77;;;1.60;;
13584;SDS011;6863;48.402;9.994;2023-09-19T13:11:45;2.03;;;1.83;;
13584;SDS011;6863;48.402;9.994;2023-09-19T13:14:14;1.40;;;1.30;;
13584;SDS011;6863;48.402;9.994;2023-09-19T13:20:01;3.78;;;1.85;;
13584;SDS011;6863;48.402;9.994;2023-09-19T13:25:18;1.80;;;1.70;;
13584;SDS011;6863;48.402;9.994;2023-09-19T13:27:51;1.52;;;1.42;;
13584;SDS011;6863;48.402;9.994;2023-09-19T13:30:22;1.40;;;1.30;;
13584;SDS011;6863;48.402;9.994;2023-09-19T13:32:50;4.53;;;1.90;;
13584;SDS011;6863;48.402;9.994;2023-09-19T13:35:16;1.77;;;1.50;;
13584;SDS011;6863;48.402;9.994;2023-09-19T13:37:42;1.63;;;1.52;;
13584;SDS011;6863;48.402;9.994;2023-09-19T13:40:12;1.67;;;1.40;;
13584;SDS011;6863;48.402;9.994;2023-09-19T13:42:39;1.70;;;1.60;;
13584;SDS011;6863;48.402;9.994;2023-09-19T13:45:06;2.05;;;1.88;;
13584;SDS011;6863;48.402;9.994;2023-09-19T13:47:32;1.80;;;1.70;;
13584;SDS011;6863;48.402;9.994;2023-09-19T13:49:58;2.22;;;2.03;;
13584;SDS011;6863;48.402;9.994;2023-09-19T13:52:25;1.40;;;1.40;;
13584;SDS011;6863;48.402;9.994;2023-09-19T13:54:53;1.98;;;1.70;;
13584;SDS011;6863;48.402;9.994;2023-09-19T13:57:21;1.85;;;1.75;;
13584;SDS011;6863;48.402;9.994;2023-09-19T13:59:56;1.70;;;1.60;;
13584;SDS011;6863;48.402;9.994;2023-09-19T14:02:22;1.88;;;1.45;;
13584;SDS011;6863;48.402;9.994;2023-09-19T14:04:48;2.05;;;1.58;;
13584;SDS011;6863;48.402;9.994;2023-09-19T14:07:14;2.15;;;1.48;;
13584;SDS011;6863;48.402;9.994;2023-09-19T14:09:40;2.90;;;1.80;;
13584;SDS011;6863;48.402;9.994;2023-09-19T14:12:06;2.67;;;1.90;;
13584;SDS011;6863;48.402;9.994;2023-09-19T14:14:32;2.05;;;1.80;;
13584;SDS011;6863;48.402;9.994;2023-09-19T14:16:57;1.83;;;1.73;;
13584;SDS011;6863;48.402;9.994;2023-09-19T14:19:26;1.52;;;1.42;;
13584;SDS011;6863;48.402;9.994;2023-09-19T14:21:52;1.70;;;1.60;;
13584;SDS011;6863;48.402;9.994;2023-09-19T14:24:20;2.03;;;1.80;;
13584;SDS011;6863;48.402;9.994;2023-09-19T14:26:47;2.00;;;1.85;;
13584;SDS011;6863;48.402;9.994;2023-09-19T14:29:13;5.20;;;1.90;;
13584;SDS011;6863;48.402;9.994;2023-09-19T14:31:39;2.00;;;1.70;;
13584;SDS011;6863;48.402;9.994;2023-09-19T14:34:05;3.42;;;2.20;;
13584;SDS011;6863;48.402;9.994;2023-09-19T14:36:31;3.45;;;1.70;;
13584;SDS011;6863;48.402;9.994;2023-09-19T14:38:58;1.95;;;1.70;;
13584;SDS011;6863;48.402;9.994;2023-09-19T14:41:23;2.38;;;1.67;;
13584;SDS011;6863;48.402;9.994;2023-09-19T14:43:50;1.50;;;1.40;;
13584;SDS011;6863;48.402;9.994;2023-09-19T14:46:17;1.77;;;1.67;;
13584;SDS011;6863;48.402;9.994;2023-09-19T14:48:43;1.80;;;1.70;;
13584;SDS011;6863;48.402;9.994;2023-09-19T14:51:11;1.98;;;1.80;;
13584;SDS011;6863;48.402;9.994;2023-09-19T14:53:36;1.70;;;1.60;;
13584;SDS011;6863;48.402;9.994;2023-09-19T14:56:03;2.17;;;1.70;;
13584;SDS011;6863;48.402;9.994;2023-09-19T14:58:40;1.98;;;1.50;;
13584;SDS011;6863;48.402;9.994;2023-09-19T15:01:10;2.08;;;1.73;;
13584;SDS011;6863;48.402;9.994;2023-09-19T15:03:36;1.45;;;1.38;;
13584;SDS011;6863;48.402;9.994;2023-09-19T15:06:05;2.88;;;1.85;;
13584;SDS011;6863;48.402;9.994;2023-09-19T15:08:31;2.17;;;1.75;;
13584;SDS011;6863;48.402;9.994;2023-09-19T15:10:59;2.63;;;1.58;;
13584;SDS011;6863;48.402;9.994;2023-09-19T15:13:28;2.10;;;1.90;;
13584;SDS011;6863;48.402;9.994;2023-09-19T15:15:58;2.38;;;1.77;;
13584;SDS011;6863;48.402;9.994;2023-09-19T15:18:33;2.97;;;2.33;;
13584;SDS011;6863;48.402;9.994;2023-09-19T15:21:03;3.00;;;1.98;;
13584;SDS011;6863;48.402;9.994;2023-09-19T15:23:29;1.70;;;1.60;;
13584;SDS011;6863;48.402;9.994;2023-09-19T15:25:57;1.90;;;1.70;;
13584;SDS011;6863;48.402;9.994;2023-09-19T15:28:23;4.07;;;3.58;;
13584;SDS011;6863;48.402;9.994;2023-09-19T15:30:49;2.45;;;1.70;;
13584;SDS011;6863;48.402;9.994;2023-09-19T15:33:15;3.13;;;2.25;;
13584;SDS011;6863;48.402;9.994;2023-09-19T15:35:40;1.70;;;1.58;;
13584;SDS011;6863;48.402;9.994;2023-09-19T15:38:07;2.20;;;1.70;;
13584;SDS011;6863;48.402;9.994;2023-09-19T15:40:32;1.88;;;1.77;;
13584;SDS011;6863;48.402;9.994;2023-09-19T15:42:58;3.28;;;1.90;;
13584;SDS011;6863;48.402;9.994;2023-09-19T15:45:25;1.85;;;1.73;;
13584;SDS011;6863;48.402;9.994;2023-09-19T15:47:50;2.40;;;2.25;;
13584;SDS011;6863;48.402;9.994;2023-09-19T15:50:16;1.80;;;1.70;;
13584;SDS011;6863;48.402;9.994;2023-09-19T15:52:42;2.10;;;1.92;;
13584;SDS011;6863;48.402;9.994;2023-09-19T15:55:08;2.47;;;1.63;;
13584;SDS011;6863;48.402;9.994;2023-09-19T15:57:36;1.98;;;1.70;;
13584;SDS011;6863;48.402;9.994;2023-09-19T16:00:02;4.07;;;2.00;;
13584;SDS011;6863;48.402;9.994;2023-09-19T16:02:30;2.05;;;1.73;;
13584;SDS011;6863;48.402;9.994;2023-09-19T16:04:56;1.90;;;1.80;;
13584;SDS011;6863;48.402;9.994;2023-09-19T16:07:21;2.15;;;1.98;;
13584;SDS011;6863;48.402;9.994;2023-09-19T16:09:47;2.28;;;1.80;;